Time;durP1;ratioP1;P1;durP2;ratioP2;P2;SDS_P1;SDS_P2;PMS_P1;PMS_P2;Temp;Humidity;BMP_temperature;BMP_pressure;BME280_temperature;BME280_humidity;BME280_pressure;Samples;Min_cycle;Max_cycle;Signal;HPM_P1;HPM_P2
2023/11/06 00:01:04;;;;;;;9.10;6.58;;;;;;;8.77;100.00;97727.79;1745710;82;25635;-62
2023/11/06 00:03:32;;;;;;;12.95;7.28;;;;;;;8.77;100.00;97728.56;1745949;82;25466;-63
2023/11/06 00:05:58;;;;;;;12.78;7.33;;;;;;;8.77;100.00;97739.91;1745711;82;26030;-63
2023/11/06 00:08:26;;;;;;;12.50;7.08;;;;;;;8.76;100.00;97739.69;1745843;82;25401;-64
2023/11/06 00:10:53;;;;;;;9.70;7.17;;;;;;;8.76;100.00;97735.66;1745864;81;27564;-62
2023/11/06 00:13:19;;;;;;;10.78;7.40;;;;;;;8.77;100.00;97743.38;1745771;82;25564;-64
2023/11/06 00:15:47;;;;;;;12.47;6.55;;;;;;;8.78;100.00;97740.11;1745815;82;25634;-63
2023/11/06 00:18:13;;;;;;;9.60;6.40;;;;;;;8.79;100.00;97746.48;1745807;82;25653;-62
2023/11/06 00:20:40;;;;;;;11.30;6.80;;;;;;;8.80;100.00;97760.73;1745857;82;25660;-63
2023/11/06 00:23:07;;;;;;;10.78;6.80;;;;;;;8.82;100.00;97757.14;1745813;82;27572;-63
2023/11/06 00:25:33;;;;;;;9.95;6.83;;;;;;;8.82;100.00;97765.23;1745726;82;25645;-64
2023/11/06 00:28:00;;;;;;;11.78;6.50;;;;;;;8.85;100.00;97765.83;1745811;81;25551;-63
2023/11/06 00:30:26;;;;;;;11.18;6.28;;;;;;;8.86;100.00;97765.28;1745781;82;25513;-63
2023/11/06 00:32:54;;;;;;;11.45;6.12;;;;;;;8.87;100.00;97775.71;1745837;82;25627;-64
2023/11/06 00:35:21;;;;;;;11.05;6.72;;;;;;;8.88;100.00;97778.59;1745823;82;27506;-64
2023/11/06 00:37:48;;;;;;;8.98;6.42;;;;;;;8.90;100.00;97779.59;1745741;82;25555;-62
2023/11/06 00:40:15;;;;;;;22.60;15.40;;;;;;;8.91;100.00;97789.25;1745817;82;25536;-62
2023/11/06 00:42:43;;;;;;;9.20;6.67;;;;;;;8.95;100.00;97790.08;1745763;82;26243;-65
2023/11/06 00:45:15;;;;;;;10.23;6.55;;;;;;;8.99;100.00;97786.89;1745839;82;25622;-65
2023/11/06 00:47:41;;;;;;;8.68;5.90;;;;;;;9.01;100.00;97799.44;1745929;82;27606;-64
2023/11/06 00:50:10;;;;;;;9.15;5.53;;;;;;;9.01;100.00;97794.05;1745832;82;25447;-65
2023/11/06 00:52:37;;;;;;;7.80;5.40;;;;;;;9.01;100.00;97802.13;1746185;82;25410;-64
2023/11/06 00:55:04;;;;;;;7.53;5.33;;;;;;;9.00;100.00;97801.14;1745763;82;25642;-64
2023/11/06 00:57:31;;;;;;;8.63;5.08;;;;;;;9.00;100.00;97805.95;1745833;82;25469;-64
2023/11/06 00:59:57;;;;;;;10.85;5.37;;;;;;;8.99;100.00;97813.86;1745812;82;27571;-63
2023/11/06 01:02:24;;;;;;;6.60;4.95;;;;;;;8.98;100.00;97813.05;1718088;82;25642;-64
2023/11/06 01:04:51;;;;;;;7.53;5.10;;;;;;;9.00;100.00;97810.58;1745750;82;25563;-64
2023/11/06 01:07:18;;;;;;;9.30;5.03;;;;;;;9.00;100.00;97817.32;1745733;82;26102;-64
2023/11/06 01:09:46;;;;;;;6.55;4.75;;;;;;;9.01;100.00;97814.81;1745814;82;25405;-64
2023/11/06 01:12:12;;;;;;;8.85;4.92;;;;;;;9.01;100.00;97822.36;1744817;82;27558;-63
2023/11/06 01:14:39;;;;;;;7.40;4.58;;;;;;;9.03;100.00;97824.70;1744729;82;26221;-63
2023/11/06 01:17:05;;;;;;;8.43;4.78;;;;;;;9.04;100.00;97827.04;1744581;82;25712;-62
2023/11/06 01:19:32;;;;;;;7.97;4.45;;;;;;;9.06;100.00;97829.35;1744874;82;26105;-62
2023/11/06 01:21:58;;;;;;;6.00;4.37;;;;;;;9.07;100.00;97840.36;1744869;82;25703;-63
2023/11/06 01:24:24;;;;;;;11.38;4.58;;;;;;;9.07;100.00;97830.92;1744838;82;27495;-63
2023/11/06 01:26:51;;;;;;;6.80;4.35;;;;;;;9.07;100.00;97835.73;1658767;82;25778;-62
2023/11/06 01:29:17;;;;;;;9.03;4.90;;;;;;;9.07;100.00;97845.17;1745088;82;25730;-62
2023/11/06 01:31:44;;;;;;;6.92;4.37;;;;;;;9.08;100.00;97843.28;1745787;82;25676;-62
2023/11/06 01:34:10;;;;;;;7.30;4.90;;;;;;;9.10;100.00;97843.69;1745899;82;25611;-62
2023/11/06 01:36:43;;;;;;;6.50;4.65;;;;;;;9.11;100.00;97847.96;1745937;82;27587;-62
2023/11/06 01:39:11;;;;;;;9.25;4.50;;;;;;;9.12;100.00;97848.16;1743573;82;25567;-62
2023/11/06 01:41:38;;;;;;;6.10;4.50;;;;;;;9.14;100.00;97852.61;1745925;82;25561;-62
2023/11/06 01:44:11;;;;;;;5.90;4.28;;;;;;;9.15;100.00;97852.26;1745889;82;25469;-62
2023/11/06 01:46:38;;;;;;;7.37;4.03;;;;;;;9.18;100.00;97854.02;1745471;82;25382;-63
2023/11/06 01:49:06;;;;;;;5.87;4.70;;;;;;;9.19;100.00;97859.06;1745909;82;27537;-63
2023/11/06 01:51:36;;;;;;;5.87;3.83;;;;;;;9.21;100.00;97865.45;1745831;82;25446;-63
2023/11/06 01:54:04;;;;;;;9.13;4.08;;;;;;;9.23;100.00;97878.80;1744916;82;25654;-63
2023/11/06 01:56:34;;;;;;;5.35;3.83;;;;;;;9.24;100.00;97866.09;1745879;82;25533;-63
2023/11/06 01:59:03;;;;;;;6.90;4.25;;;;;;;9.25;100.00;97881.91;1745931;82;25666;-63
2023/11/06 02:01:34;;;;;;;5.90;3.98;;;;;;;9.26;100.00;97879.98;1746052;82;28210;-63
2023/11/06 02:04:06;;;;;;;5.05;4.00;;;;;;;9.27;100.00;97876.16;1718044;82;25564;-63
2023/11/06 02:06:31;;;;;;;4.95;3.70;;;;;;;9.26;100.00;97884.83;1745942;82;25432;-63
2023/11/06 02:09:00;;;;;;;4.17;3.42;;;;;;;9.27;100.00;97882.91;1718339;82;25726;-62
2023/11/06 02:11:27;;;;;;;4.70;3.75;;;;;;;9.27;100.00;97890.42;1746052;82;25639;-62
2023/11/06 02:13:54;;;;;;;5.00;3.70;;;;;;;9.27;100.00;97895.81;1745896;82;27546;-63
2023/11/06 02:16:20;;;;;;;6.25;3.95;;;;;;;9.27;100.00;97898.52;1745781;82;26092;-62
2023/11/06 02:18:46;;;;;;;4.62;3.92;;;;;;;9.27;100.00;97904.48;1745877;82;25632;-62
2023/11/06 02:21:12;;;;;;;4.42;3.70;;;;;;;9.27;100.00;97916.62;1745875;82;25658;-61
2023/11/06 02:23:40;;;;;;;4.53;3.75;;;;;;;9.26;100.00;97925.84;1745925;82;25488;-62
2023/11/06 02:26:06;;;;;;;6.65;3.98;;;;;;;9.27;100.00;97927.41;1745871;82;27518;-63
2023/11/06 02:28:33;;;;;;;5.25;3.95;;;;;;;9.27;100.00;97934.16;1746895;81;25607;-63
2023/11/06 02:30:59;;;;;;;6.03;4.15;;;;;;;9.26;100.00;97936.08;1748832;82;25452;-62
2023/11/06 02:33:25;;;;;;;7.58;3.65;;;;;;;9.26;100.00;97936.08;1748744;82;25642;-62
2023/11/06 02:35:51;;;;;;;6.00;3.45;;;;;;;9.27;100.00;97938.98;1748845;82;25567;-63
2023/11/06 02:38:17;;;;;;;5.45;3.62;;;;;;;9.26;100.00;97948.77;1748783;82;27507;-62
2023/11/06 02:40:43;;;;;;;5.72;3.87;;;;;;;9.27;100.00;97943.59;1748806;82;25435;-63
2023/11/06 02:43:10;;;;;;;6.87;3.35;;;;;;;9.26;100.00;97952.27;1723315;82;25444;-63
2023/11/06 02:45:37;;;;;;;4.97;3.47;;;;;;;9.27;100.00;97961.13;1748767;82;26157;-63
2023/11/06 02:48:03;;;;;;;4.00;3.58;;;;;;;9.27;100.00;97954.39;1748808;82;25521;-63
2023/11/06 02:50:31;;;;;;;6.53;3.37;;;;;;;9.26;100.00;97961.71;1697865;82;27581;-63
2023/11/06 02:52:58;;;;;;;5.97;3.67;;;;;;;9.27;100.00;97965.95;1748725;82;25784;-63
2023/11/06 02:55:24;;;;;;;7.47;3.83;;;;;;;9.27;100.00;97965.95;1748729;82;25383;-62
2023/11/06 02:57:51;;;;;;;6.40;3.80;;;;;;;9.28;100.00;97966.17;1748768;82;25544;-63
2023/11/06 03:00:18;;;;;;;7.17;3.58;;;;;;;9.29;100.00;97972.34;1748766;82;25374;-63
2023/11/06 03:02:44;;;;;;;4.28;3.77;;;;;;;9.30;100.00;97967.17;1723400;82;27718;-62
2023/11/06 03:05:11;;;;;;;6.60;3.72;;;;;;;9.30;100.00;97980.08;1748657;82;25601;-64
2023/11/06 03:07:38;;;;;;;7.28;3.20;;;;;;;9.32;100.00;97985.12;1748765;82;25632;-62
2023/11/06 03:10:06;;;;;;;5.40;3.50;;;;;;;9.32;100.00;97980.50;1748732;82;25475;-63
2023/11/06 03:12:32;;;;;;;6.42;3.37;;;;;;;9.33;100.00;97989.36;1748806;82;25632;-63
2023/11/06 03:14:59;;;;;;;3.47;3.17;;;;;;;9.35;100.00;97993.86;1748792;82;27582;-63
2023/11/06 03:17:25;;;;;;;6.95;3.45;;;;;;;9.36;100.00;97996.75;1748701;82;25576;-62
2023/11/06 03:19:51;;;;;;;6.75;3.30;;;;;;;9.37;100.00;97988.11;1748875;82;25419;-63
2023/11/06 03:22:18;;;;;;;5.05;3.15;;;;;;;9.38;100.00;97993.70;1748752;82;25505;-62
2023/11/06 03:24:44;;;;;;;3.83;3.05;;;;;;;9.38;100.00;97997.20;1748848;82;25627;-62
2023/11/06 03:27:10;;;;;;;7.17;3.40;;;;;;;9.39;100.00;97991.22;1748753;82;28072;-62
2023/11/06 03:29:36;;;;;;;4.25;3.00;;;;;;;9.40;100.00;97994.12;1746603;82;25608;-63
2023/11/06 03:32:04;;;;;;;4.80;2.85;;;;;;;9.42;100.00;97993.22;1745843;82;25475;-63
2023/11/06 03:34:30;;;;;;;6.08;3.00;;;;;;;9.41;100.00;98000.51;1745958;82;25586;-64
2023/11/06 03:36:56;;;;;;;5.67;3.10;;;;;;;9.42;100.00;97998.03;1745991;82;25637;-63
2023/11/06 03:39:23;;;;;;;5.33;2.75;;;;;;;9.43;100.00;98008.25;1745849;82;28497;-63
2023/11/06 03:41:49;;;;;;;4.72;2.58;;;;;;;9.44;100.00;98027.36;1745763;82;25767;-63
2023/11/06 03:44:16;;;;;;;4.60;2.90;;;;;;;9.45;100.00;98023.51;1745807;82;25315;-63
2023/11/06 03:46:42;;;;;;;4.37;2.58;;;;;;;9.46;100.00;98015.63;1745757;82;25591;-62
2023/11/06 03:49:09;;;;;;;4.17;2.80;;;;;;;9.42;100.00;98008.05;1745880;82;25396;-63
2023/11/06 03:51:36;;;;;;;6.78;2.47;;;;;;;9.46;100.00;98016.98;1745826;82;27618;-63
2023/11/06 03:54:03;;;;;;;3.25;2.52;;;;;;;9.47;100.00;98020.67;1745822;82;25789;-63
2023/11/06 03:56:29;;;;;;;3.47;2.50;;;;;;;9.47;100.00;98022.03;1745984;82;25581;-63
2023/11/06 03:58:56;;;;;;;3.22;2.50;;;;;;;9.47;100.00;98028.77;1745914;82;25695;-63
2023/11/06 04:01:22;;;;;;;5.83;2.50;;;;;;;9.47;100.00;98026.08;1746071;82;25580;-63
2023/11/06 04:03:48;;;;;;;4.17;2.70;;;;;;;9.49;100.00;98031.12;1745968;82;27494;-63
2023/11/06 04:06:15;;;;;;;3.35;2.67;;;;;;;9.50;100.00;98028.61;1745811;82;25468;-64
2023/11/06 04:08:41;;;;;;;2.62;2.30;;;;;;;9.50;100.00;98029.96;1745874;82;25627;-64
2023/11/06 04:11:07;;;;;;;5.83;2.45;;;;;;;9.51;100.00;98024.79;1745852;82;25533;-63
2023/11/06 04:13:33;;;;;;;5.37;2.52;;;;;;;9.52;100.00;98040.63;1745996;82;25551;-64
2023/11/06 04:16:00;;;;;;;2.58;2.20;;;;;;;9.53;100.00;98035.45;1745880;82;27478;-62
2023/11/06 04:18:26;;;;;;;3.95;2.20;;;;;;;9.55;100.00;98047.22;1745731;82;25482;-62
2023/11/06 04:20:54;;;;;;;4.58;2.58;;;;;;;9.56;100.00;98055.53;1745821;82;25490;-62
2023/11/06 04:23:20;;;;;;;4.75;2.30;;;;;;;9.57;100.00;98060.36;1745746;82;25585;-62
2023/11/06 04:25:48;;;;;;;3.47;2.30;;;;;;;9.58;100.00;98060.58;1718146;82;25592;-61
2023/11/06 04:28:15;;;;;;;2.83;2.17;;;;;;;9.58;100.00;98058.66;1745858;82;27415;-61
2023/11/06 04:30:43;;;;;;;2.85;2.15;;;;;;;9.58;100.00;98062.70;1748556;82;25792;-62
2023/11/06 04:33:09;;;;;;;4.20;2.30;;;;;;;9.59;100.00;98072.95;1748745;82;25630;-62
2023/11/06 04:35:36;;;;;;;2.22;1.95;;;;;;;9.58;100.00;98083.52;1748690;82;25568;-63
2023/11/06 04:38:02;;;;;;;3.22;2.10;;;;;;;9.59;100.00;98079.70;1748796;82;25630;-63
2023/11/06 04:40:28;;;;;;;4.53;2.20;;;;;;;9.59;100.00;98087.22;1748689;82;27480;-63
2023/11/06 04:42:54;;;;;;;3.20;2.20;;;;;;;9.59;100.00;98088.56;1748642;82;25681;-63
2023/11/06 04:45:21;;;;;;;6.75;2.62;;;;;;;9.60;100.00;98100.91;1748726;82;25476;-63
2023/11/06 04:47:47;;;;;;;3.80;2.40;;;;;;;9.60;100.00;98096.09;1748586;82;25574;-63
2023/11/06 04:50:14;;;;;;;2.95;2.17;;;;;;;9.62;100.00;98104.05;1748835;82;25558;-63
2023/11/06 04:52:40;;;;;;;2.58;1.87;;;;;;;9.65;100.00;98102.55;1723103;82;27401;-63
2023/11/06 04:55:09;;;;;;;4.22;2.20;;;;;;;9.65;100.00;98100.66;1722925;82;25603;-63
2023/11/06 04:57:35;;;;;;;2.20;1.70;;;;;;;9.66;100.00;98112.99;1748716;82;25561;-63
2023/11/06 05:00:04;;;;;;;2.92;2.10;;;;;;;9.67;100.00;98117.81;1723122;82;25685;-63
2023/11/06 05:02:30;;;;;;;3.43;1.67;;;;;;;9.67;100.00;98107.02;1699467;82;25676;-63
2023/11/06 05:04:56;;;;;;;2.40;1.87;;;;;;;9.66;100.00;98133.23;1723060;82;27872;-63
2023/11/06 05:07:22;;;;;;;4.37;1.85;;;;;;;9.66;100.00;98117.62;1748687;82;25798;-62
2023/11/06 05:09:48;;;;;;;4.05;2.00;;;;;;;9.67;100.00;98142.91;1748906;82;25645;-62
2023/11/06 05:12:15;;;;;;;4.17;1.82;;;;;;;9.66;100.00;98130.54;1748794;82;25523;-63
2023/11/06 05:14:41;;;;;;;2.87;1.87;;;;;;;9.67;100.00;98146.16;1723251;82;25440;-63
2023/11/06 05:17:07;;;;;;;5.15;1.85;;;;;;;9.68;100.00;98143.68;1748942;82;27578;-63
2023/11/06 05:19:37;;;;;;;2.40;1.80;;;;;;;9.69;100.00;98146.03;1748808;82;25598;-64
2023/11/06 05:22:02;;;;;;;2.98;2.00;;;;;;;9.72;100.00;98151.27;1748879;82;25401;-63
2023/11/06 05:24:29;;;;;;;4.58;1.70;;;;;;;9.73;100.00;98167.70;1748966;82;25560;-63
2023/11/06 05:26:56;;;;;;;4.37;2.05;;;;;;;9.71;100.00;98165.34;1748960;82;25583;-64
2023/11/06 05:29:22;;;;;;;3.22;2.30;;;;;;;9.71;100.00;98179.42;1748893;82;28065;-63
2023/11/06 05:31:48;;;;;;;3.10;1.57;;;;;;;9.68;100.00;98189.00;1748836;82;25428;-66
2023/11/06 05:34:14;;;;;;;1.95;1.75;;;;;;;9.66;100.00;98181.05;1748856;82;25608;-67
2023/11/06 05:36:41;;;;;;;4.00;1.80;;;;;;;9.63;100.00;98194.67;1723065;82;26438;-68
2023/11/06 05:39:07;;;;;;;5.08;1.70;;;;;;;9.59;100.00;98185.73;1748880;82;25633;-67
2023/11/06 05:41:34;;;;;;;5.70;1.95;;;;;;;9.56;100.00;98193.17;1748906;82;27631;-67
2023/11/06 05:44:00;;;;;;;5.80;1.90;;;;;;;9.54;100.00;98196.23;1748764;82;25452;-68
2023/11/06 05:46:26;;;;;;;4.40;1.87;;;;;;;9.52;100.00;98206.59;1748846;82;25639;-67
2023/11/06 05:48:52;;;;;;;3.80;1.90;;;;;;;9.48;100.00;98213.84;1748760;82;25627;-67
2023/11/06 05:51:19;;;;;;;3.80;2.05;;;;;;;9.46;100.00;98220.72;1748800;82;25361;-66
2023/11/06 05:53:45;;;;;;;4.50;1.80;;;;;;;9.44;100.00;98224.34;1748787;82;27602;-65
2023/11/06 05:56:12;;;;;;;5.67;2.20;;;;;;;9.42;100.00;98223.34;1748763;82;25841;-66
2023/11/06 05:58:38;;;;;;;3.05;1.80;;;;;;;9.41;100.00;98225.03;1748845;82;25557;-66
2023/11/06 06:01:05;;;;;;;5.95;1.90;;;;;;;9.41;100.00;98240.65;1748820;82;25462;-65
2023/11/06 06:03:32;;;;;;;3.85;2.33;;;;;;;9.41;100.00;98240.65;1723218;82;25453;-66
2023/11/06 06:05:58;;;;;;;3.47;2.30;;;;;;;9.41;100.00;98254.72;1748823;82;28832;-64
2023/11/06 06:08:24;;;;;;;5.10;2.33;;;;;;;9.43;100.00;98249.75;1748800;82;25633;-65
2023/11/06 06:10:50;;;;;;;2.10;1.65;;;;;;;9.44;100.00;98251.32;1749032;82;25563;-65
2023/11/06 06:13:18;;;;;;;4.53;1.90;;;;;;;9.44;100.00;98260.19;1748865;82;27639;-64
2023/11/06 06:15:44;;;;;;;2.58;1.77;;;;;;;9.44;100.00;98267.52;1749016;82;25570;-64
2023/11/06 06:18:11;;;;;;;8.28;1.90;;;;;;;9.47;100.00;98280.31;1748694;81;27363;-64
2023/11/06 06:20:37;;;;;;;6.60;1.80;;;;;;;9.48;100.00;98277.81;1748716;82;25666;-63
2023/11/06 06:23:03;;;;;;;3.98;1.70;;;;;;;9.51;100.00;98285.98;1748778;82;25549;-65
2023/11/06 06:25:29;;;;;;;5.00;1.92;;;;;;;9.55;100.00;98292.81;1723129;82;25590;-66
2023/11/06 06:27:56;;;;;;;4.75;1.70;;;;;;;9.59;100.00;98293.69;1748841;82;25466;-66
2023/11/06 06:30:25;;;;;;;2.77;1.57;;;;;;;9.61;100.00;98300.87;1748662;82;27513;-66
2023/11/06 06:32:50;;;;;;;2.37;1.60;;;;;;;9.63;100.00;98309.97;1722916;82;25631;-66
2023/11/06 06:35:17;;;;;;;4.33;1.70;;;;;;;9.65;100.00;98310.39;1748715;82;25590;-66
2023/11/06 06:37:43;;;;;;;6.33;1.72;;;;;;;9.66;100.00;98322.19;1748745;82;25519;-66
2023/11/06 06:40:13;;;;;;;4.15;1.50;;;;;;;9.67;99.66;98322.42;1748870;82;25196;-65
2023/11/06 06:42:41;;;;;;;6.35;1.60;;;;;;;9.70;98.39;98324.97;1748899;82;28262;-66
2023/11/06 06:45:09;;;;;;;4.90;1.60;;;;;;;9.72;98.20;98336.20;1748705;82;25413;-66
2023/11/06 06:47:36;;;;;;;2.08;1.30;;;;;;;9.76;97.69;98339.00;1748916;82;25457;-65
2023/11/06 06:50:04;;;;;;;2.77;1.40;;;;;;;9.76;98.09;98330.91;1748761;82;25553;-67
2023/11/06 06:52:31;;;;;;;5.08;1.60;;;;;;;9.79;97.49;98346.37;1749068;82;25606;-67
2023/11/06 06:54:57;;;;;;;5.20;1.50;;;;;;;9.82;96.29;98326.78;1722992;82;27212;-66
2023/11/06 06:57:23;;;;;;;7.17;1.72;;;;;;;9.85;95.28;98349.81;1748714;82;25641;-67
2023/11/06 06:59:51;;;;;;;3.60;1.47;;;;;;;9.89;94.17;98363.39;1748767;82;25483;-67
2023/11/06 07:02:17;;;;;;;2.83;1.62;;;;;;;9.93;94.47;98351.31;1748728;82;27589;-68
2023/11/06 07:04:44;;;;;;;3.95;1.52;;;;;;;9.96;95.35;98364.92;1748848;82;25637;-68
2023/11/06 07:07:11;;;;;;;3.22;1.60;;;;;;;9.99;95.20;98364.77;1748745;82;27479;-67
2023/11/06 07:09:37;;;;;;;3.80;1.52;;;;;;;10.02;92.21;98366.78;1723077;82;25461;-68
2023/11/06 07:12:07;;;;;;;2.98;1.40;;;;;;;10.07;90.92;98367.28;1748790;82;25538;-68
2023/11/06 07:14:33;;;;;;;5.00;2.62;;;;;;;10.14;93.02;98365.88;1723669;82;25638;-67
2023/11/06 07:17:04;;;;;;;3.67;1.17;;;;;;;10.18;93.25;98382.39;1748832;82;25407;-69
2023/11/06 07:19:31;;;;;;;7.83;1.57;;;;;;;10.21;91.76;98381.66;1748904;82;27470;-69
2023/11/06 07:21:59;;;;;;;6.72;1.70;;;;;;;10.24;90.68;98387.72;1748840;82;25717;-68
2023/11/06 07:24:26;;;;;;;5.80;1.57;;;;;;;10.27;91.79;98387.02;1748835;82;25538;-69
2023/11/06 07:26:55;;;;;;;2.42;1.05;;;;;;;10.30;90.36;98404.46;1748829;82;25516;-68
2023/11/06 07:29:23;;;;;;;2.02;1.30;;;;;;;10.34;89.30;98402.64;1748723;82;25636;-69
2023/11/06 07:31:50;;;;;;;3.65;1.30;;;;;;;10.36;89.14;98413.88;1748815;82;27494;-68
2023/11/06 07:34:21;;;;;;;1.57;1.30;;;;;;;10.38;87.56;98404.06;1748791;82;25857;-68
2023/11/06 07:36:49;;;;;;;5.12;1.55;;;;;;;10.42;88.49;98408.97;1748824;82;25543;-68
2023/11/06 07:39:15;;;;;;;6.50;1.60;;;;;;;10.48;85.76;98404.08;1748756;82;26313;-67
2023/11/06 07:41:43;;;;;;;2.20;1.30;;;;;;;10.50;87.97;98414.74;1748867;82;25494;-66
2023/11/06 07:44:09;;;;;;;5.33;1.32;;;;;;;10.52;86.90;98421.95;1748845;82;27457;-66
2023/11/06 07:46:35;;;;;;;8.25;1.55;;;;;;;10.54;86.49;98421.02;1748694;82;25387;-67
2023/11/06 07:49:03;;;;;;;1.40;1.10;;;;;;;10.60;86.31;98425.00;1748795;82;26813;-67
2023/11/06 07:51:30;;;;;;;4.87;1.27;;;;;;;10.68;86.62;98430.00;1748709;82;25498;-67
2023/11/06 07:53:58;;;;;;;4.15;1.40;;;;;;;10.72;83.97;98430.84;1748752;82;25617;-68
2023/11/06 07:56:24;;;;;;;3.67;1.52;;;;;;;10.74;84.30;98442.66;1748763;82;28225;-66
2023/11/06 07:58:50;;;;;;;3.98;1.30;;;;;;;10.72;83.80;98444.36;1723067;82;25635;-66
2023/11/06 08:01:17;;;;;;;4.33;1.32;;;;;;;10.70;83.66;98435.83;1748743;82;25603;-67
2023/11/06 08:03:44;;;;;;;2.50;1.40;;;;;;;10.67;83.39;98461.45;1748724;82;25911;-67
2023/11/06 08:06:12;;;;;;;3.52;1.42;;;;;;;10.65;84.63;98457.16;1748806;82;25525;-67
2023/11/06 08:08:43;;;;;;;1.65;1.25;;;;;;;10.64;84.96;98484.00;1748724;82;27499;-67
2023/11/06 08:11:09;;;;;;;7.42;1.87;;;;;;;10.60;84.48;98475.02;1748843;82;25761;-66
2023/11/06 08:13:35;;;;;;;7.25;1.82;;;;;;;10.58;84.06;98465.12;1748885;82;25627;-67
2023/11/06 08:16:05;;;;;;;4.05;1.60;;;;;;;10.54;82.38;98483.20;1748806;82;25566;-67
2023/11/06 08:18:31;;;;;;;7.83;1.60;;;;;;;10.54;83.69;98499.97;1723867;82;25445;-68
2023/11/06 08:20:59;;;;;;;2.27;1.37;;;;;;;10.50;82.75;98506.65;1748871;82;27483;-68
2023/11/06 08:23:27;;;;;;;9.83;4.33;;;;;;;10.50;84.30;98511.28;1749001;82;25595;-67
2023/11/06 08:25:55;;;;;;;24.87;14.80;;;;;;;10.49;84.44;98507.00;1748984;82;25203;-68
2023/11/06 08:28:23;;;;;;;6.65;2.72;;;;;;;10.50;84.47;98512.63;1748842;82;26163;-61
2023/11/06 08:30:51;;;;;;;3.52;1.22;;;;;;;10.52;84.33;98522.52;1747317;82;25385;-63
2023/11/06 08:33:19;;;;;;;6.35;1.87;;;;;;;10.54;84.83;98515.64;1745806;82;28106;-63
2023/11/06 08:35:46;;;;;;;5.75;2.05;;;;;;;10.58;85.13;98520.55;1745699;82;25440;-63
2023/11/06 08:38:13;;;;;;;3.47;1.22;;;;;;;10.60;84.16;98542.60;1745823;82;25622;-62
2023/11/06 08:40:39;;;;;;;4.05;1.50;;;;;;;10.63;84.08;98539.78;1745884;82;25528;-65
2023/11/06 08:43:06;;;;;;;5.75;1.92;;;;;;;10.66;82.56;98539.08;1746008;82;25638;-67
2023/11/06 08:45:33;;;;;;;2.17;1.30;;;;;;;10.67;82.83;98551.45;1745980;82;27560;-66
2023/11/06 08:47:59;;;;;;;6.30;1.67;;;;;;;10.64;83.54;98557.55;1745832;82;25427;-68
2023/11/06 08:50:26;;;;;;;4.00;1.60;;;;;;;10.62;83.68;98551.72;1745747;82;25713;-68
2023/11/06 08:52:52;;;;;;;5.72;2.05;;;;;;;10.61;83.40;98547.46;1744888;82;26028;-68
2023/11/06 08:55:18;;;;;;;2.85;1.37;;;;;;;10.57;83.56;98565.50;1745916;82;25694;-68
2023/11/06 08:57:45;;;;;;;4.17;1.60;;;;;;;10.53;83.73;98574.11;1746035;82;27518;-67
2023/11/06 09:00:14;;;;;;;5.60;1.40;;;;;;;10.47;83.43;98573.57;1745934;82;25721;-66
2023/11/06 09:02:40;;;;;;;4.33;1.40;;;;;;;10.40;83.29;98587.72;1718367;82;25662;-66
2023/11/06 09:05:08;;;;;;;2.58;1.40;;;;;;;10.36;83.31;98578.73;1745936;82;25450;-66
2023/11/06 09:07:35;;;;;;;3.12;1.37;;;;;;;10.31;83.95;98596.52;1745935;82;25480;-67
2023/11/06 09:10:01;;;;;;;3.33;1.70;;;;;;;10.28;83.98;98602.08;1745910;82;27479;-68
2023/11/06 09:12:27;;;;;;;4.87;1.85;;;;;;;10.27;84.30;98587.56;1718400;82;27432;-68
2023/11/06 09:14:53;;;;;;;4.17;1.40;;;;;;;10.25;84.18;98596.01;1745952;82;25568;-67
2023/11/06 09:17:20;;;;;;;6.58;1.67;;;;;;;10.26;83.78;98604.31;1745876;82;27720;-68
2023/11/06 09:19:47;;;;;;;6.90;1.60;;;;;;;10.27;84.14;98617.28;1745990;82;25394;-68
2023/11/06 09:22:14;;;;;;;4.60;1.45;;;;;;;10.26;83.81;98612.42;1745961;82;27514;-67
2023/11/06 09:24:42;;;;;;;9.08;2.50;;;;;;;10.26;83.28;98632.69;1745898;82;25622;-67
2023/11/06 09:27:08;;;;;;;7.20;1.60;;;;;;;10.26;83.85;98634.04;1745932;81;25629;-67
2023/11/06 09:29:35;;;;;;;2.25;1.60;;;;;;;10.26;83.87;98645.42;1745852;82;25560;-67
2023/11/06 09:32:02;;;;;;;4.65;1.60;;;;;;;10.27;84.13;98634.84;1745892;81;25646;-67
2023/11/06 09:34:29;;;;;;;3.58;1.45;;;;;;;10.25;83.79;98648.70;1745938;82;27363;-68
2023/11/06 09:36:57;;;;;;;2.30;1.30;;;;;;;10.24;83.17;98652.52;1745785;82;25622;-67
2023/11/06 09:39:24;;;;;;;6.28;1.62;;;;;;;10.21;84.45;98661.31;1745927;82;25392;-68
2023/11/06 09:41:51;;;;;;;4.05;1.85;;;;;;;10.14;85.10;98638.17;1745861;82;25590;-66
2023/11/06 09:44:18;;;;;;;2.15;1.70;;;;;;;10.07;86.04;98664.42;1745975;82;25409;-66
2023/11/06 09:46:48;;;;;;;3.80;1.30;;;;;;;9.99;86.55;98663.23;1745922;82;27549;-66
2023/11/06 09:49:22;;;;;;;3.83;1.60;;;;;;;9.93;86.22;98650.55;1745943;82;25582;-66
2023/11/06 09:51:52;;;;;;;5.87;1.40;;;;;;;9.90;86.80;98652.01;1745653;82;25654;-71
2023/11/06 09:54:24;;;;;;;6.60;1.40;;;;;;;9.89;86.63;98673.41;1745956;82;25571;-69
2023/11/06 09:56:53;;;;;;;6.92;1.67;;;;;;;9.89;87.01;98665.85;1718167;82;25644;-68
2023/11/06 09:59:23;;;;;;;5.45;1.57;;;;;;;9.91;86.92;98667.09;1746048;82;27512;-68
2023/11/06 10:01:54;;;;;;;6.53;1.85;;;;;;;9.96;87.47;98678.23;1745802;82;25872;-66
2023/11/06 10:04:22;;;;;;;3.35;1.57;;;;;;;10.00;87.14;98674.27;1745959;82;25589;-66
2023/11/06 10:06:52;;;;;;;3.50;1.60;;;;;;;10.03;87.12;98674.36;1745975;82;25636;-66
2023/11/06 10:09:25;;;;;;;4.70;1.65;;;;;;;10.07;86.13;98686.04;1746003;81;25646;-69
2023/11/06 10:11:58;;;;;;;3.95;1.40;;;;;;;10.12;86.56;98682.31;1745905;82;27482;-68
2023/11/06 10:14:38;;;;;;;3.95;1.70;;;;;;;10.16;85.57;98687.23;1745843;82;25582;-68
2023/11/06 10:17:05;;;;;;;4.22;1.62;;;;;;;10.20;86.16;98691.38;1745928;82;25573;-69
2023/11/06 10:19:31;;;;;;;5.60;1.80;;;;;;;10.22;86.22;98696.67;1745912;82;26144;-69
2023/11/06 10:22:14;;;;;;;7.42;1.80;;;;;;;10.25;85.37;98720.88;1717924;82;25505;-68
2023/11/06 10:24:51;;;;;;;6.17;1.50;;;;;;;10.26;85.49;98709.70;1718431;82;27655;-68
2023/11/06 10:27:33;;;;;;;5.42;2.00;;;;;;;10.29;85.19;98714.42;1745878;82;25855;-67
2023/11/06 10:30:09;;;;;;;6.72;2.00;;;;;;;10.32;84.50;98704.88;1745924;81;25621;-68
2023/11/06 10:32:34;;;;;;;3.17;2.08;;;;;;;10.38;84.59;98715.64;1748266;82;25970;-67
2023/11/06 10:35:03;;;;;;;5.87;1.40;;;;;;;10.42;85.00;98718.44;1748844;82;25683;-68
2023/11/06 10:37:29;;;;;;;;;;;;;;;10.46;84.03;98717.41;1749577;82;27593;-69
2023/11/06 10:39:57;;;;;;;7.22;1.90;;;;;;;10.52;84.31;98730.13;1748855;81;32678;-68
2023/11/06 10:42:25;;;;;;;6.00;2.00;;;;;;;10.55;84.34;98728.63;1748786;82;25643;-68
2023/11/06 10:45:01;;;;;;;3.45;1.40;;;;;;;10.60;84.35;98730.51;1748770;82;25487;-67
2023/11/06 10:47:34;;;;;;;5.97;1.98;;;;;;;10.64;83.92;98731.41;1748837;82;25643;-68
2023/11/06 10:50:11;;;;;;;5.25;1.72;;;;;;;10.72;83.15;98749.94;1748826;82;27705;-69
2023/11/06 10:52:44;;;;;;;8.58;1.70;;;;;;;10.80;84.09;98737.39;1748800;82;25399;-71
2023/11/06 10:55:16;;;;;;;6.00;1.87;;;;;;;10.89;84.22;98743.98;1748895;81;25463;-72
2023/11/06 10:57:44;;;;;;;7.80;1.90;;;;;;;11.00;84.65;98755.29;1748828;82;25555;-70
2023/11/06 11:00:18;;;;;;;2.90;1.30;;;;;;;11.12;83.39;98753.06;1748903;82;25469;-71
2023/11/06 11:02:45;;;;;;;4.42;1.50;;;;;;;11.20;82.19;98750.75;1748774;82;27527;-70
2023/11/06 11:05:15;;;;;;;7.17;1.85;;;;;;;11.26;79.86;98770.20;1748739;82;25606;-73
2023/11/06 11:07:43;;;;;;;5.58;1.75;;;;;;;11.37;81.68;98754.20;1748162;82;25724;-71
2023/11/06 11:10:14;;;;;;;3.45;1.50;;;;;;;11.67;82.64;98759.14;1721841;82;26070;-70
2023/11/06 11:12:44;;;;;;;2.30;1.30;;;;;;;12.10;83.34;98770.91;1748382;82;25860;-71
2023/11/06 11:15:12;;;;;;;3.45;1.25;;;;;;;12.54;81.99;98773.33;1748784;82;27453;-68
2023/11/06 11:17:39;;;;;;;7.03;1.87;;;;;;;12.89;79.48;98776.48;1722369;82;25699;-69
2023/11/06 11:20:14;;;;;;;4.12;1.55;;;;;;;12.97;72.96;98783.58;1722211;82;25734;-72
2023/11/06 11:23:10;;;;;;;4.90;1.37;;;;;;;13.30;71.49;98767.27;1698758;84;25772;-72
2023/11/06 11:25:58;;;;;;;6.22;2.35;;;;;;;13.52;74.53;98780.63;1672223;84;25592;-70
2023/11/06 11:28:26;;;;;;;6.75;1.82;;;;;;;13.61;73.96;98785.80;1700240;84;27455;-71
2023/11/06 11:30:54;;;;;;;2.87;1.32;;;;;;;13.58;72.39;98786.53;1701104;83;25599;-70
2023/11/06 11:33:54;;;;;;;3.85;1.52;;;;;;;13.46;70.87;98810.59;1697692;84;25181;-69
2023/11/06 11:36:38;;;;;;;3.00;1.30;;;;;;;13.27;71.48;98789.72;1696626;84;25591;-69